Time;durP1;ratioP1;P1;durP2;ratioP2;P2;SDS_P1;SDS_P2;PMS_P1;PMS_P2;Temp;Humidity;BMP_temperature;BMP_pressure;BME280_temperature;BME280_humidity;BME280_pressure;Samples;Min_cycle;Max_cycle;Signal;HPM_P1;HPM_P2
2023/02/28 00:00:22;;;;;;;;;;;;;;;12.40;61.75;100189.47;5092361;28;20360;-44
2023/02/28 00:02:48;;;;;;;;;;;;;;;12.15;62.57;100197.22;5093013;28;20436;-44
2023/02/28 00:05:15;;;;;;;;;;;;;;;12.35;62.07;100208.75;5092990;28;19943;-44
2023/02/28 00:07:41;;;;;;;;;;;;;;;12.71;60.42;100204.88;5092729;28;19912;-44
2023/02/28 00:10:07;;;;;;;;;;;;;;;12.78;60.30;100204.88;5092722;28;19924;-45
2023/02/28 00:12:34;;;;;;;;;;;;;;;12.55;61.36;100200.78;5092889;28;19934;-43
2023/02/28 00:14:59;;;;;;;;;;;;;;;12.73;60.30;100210.00;5092801;28;20071;-44
2023/02/28 00:17:24;;;;;;;;;;;;;;;13.11;59.50;100207.50;5092485;28;19912;-45
2023/02/28 00:19:50;;;;;;;;;;;;;;;13.41;58.39;100199.03;5092611;28;20025;-44
2023/02/28 00:22:16;;;;;;;;;;;;;;;13.19;58.29;100207.25;5092447;28;20376;-44
2023/02/28 00:24:41;;;;;;;;;;;;;;;13.26;58.37;100208.06;5092188;28;20068;-44
2023/02/28 00:27:06;;;;;;;;;;;;;;;13.09;59.19;100206.88;5092612;28;19920;-37
2023/02/28 00:29:32;;;;;;;;;;;;;;;12.94;59.49;100207.09;5092341;28;19916;-37
2023/02/28 00:31:57;;;;;;;;;;;;;;;13.13;59.15;100197.41;5092215;28;20438;-37
2023/02/28 00:34:22;;;;;;;;;;;;;;;13.36;58.59;100196.16;5092482;28;19912;-37
2023/02/28 00:36:51;;;;;;;;;;;;;;;13.32;58.10;100190.41;5092382;28;20236;-38
2023/02/28 00:39:16;;;;;;;;;;;;;;;12.90;59.38;100188.00;5091219;28;19919;-37
2023/02/28 00:41:41;;;;;;;;;;;;;;;12.86;59.40;100184.09;5092299;28;19916;-37
2023/02/28 00:44:07;;;;;;;;;;;;;;;13.12;59.41;100185.09;5092022;28;19916;-37
2023/02/28 00:46:32;;;;;;;;;;;;;;;13.28;58.50;100197.19;5092059;28;19916;-37
2023/02/28 00:48:57;;;;;;;;;;;;;;;13.34;58.48;100204.38;5092037;28;20390;-37
2023/02/28 00:51:22;;;;;;;;;;;;;;;13.41;57.95;100205.19;5092211;28;19912;-37
2023/02/28 00:53:48;;;;;;;;;;;;;;;13.59;57.57;100207.16;5092280;28;19947;-37
2023/02/28 00:56:13;;;;;;;;;;;;;;;13.69;56.98;100193.38;5091887;28;20248;-37
2023/02/28 00:58:39;;;;;;;;;;;;;;;13.60;57.31;100191.97;5092085;28;19911;-37
2023/02/28 01:01:04;;;;;;;;;;;;;;;13.47;58.16;100200.84;5091794;28;19915;-38
2023/02/28 01:03:29;;;;;;;;;;;;;;;13.65;57.41;100198.31;5091657;28;19912;-37
2023/02/28 01:05:54;;;;;;;;;;;;;;;13.72;56.99;100216.19;5092038;28;20379;-38
2023/02/28 01:08:20;;;;;;;;;;;;;;;13.87;56.67;100230.09;5091597;28;20340;-38
2023/02/28 01:10:45;;;;;;;;;;;;;;;13.89;55.99;100222.69;5091616;28;19912;-38
2023/02/28 01:13:11;;;;;;;;;;;;;;;13.37;57.39;100220.00;5091384;28;19916;-37
2023/02/28 01:15:36;;;;;;;;;;;;;;;13.42;57.76;100222.03;5091513;28;19916;-38
2023/02/28 01:18:01;;;;;;;;;;;;;;;13.64;56.86;100219.91;5091705;28;19912;-38
2023/02/28 01:20:27;;;;;;;;;;;;;;;13.69;56.15;100204.88;5091765;28;20380;-38
2023/02/28 01:22:52;;;;;;;;;;;;;;;13.78;56.37;100223.34;5091419;28;19943;-37
2023/02/28 01:25:17;;;;;;;;;;;;;;;13.61;56.63;100242.56;5091630;28;19934;-38
2023/02/28 01:27:43;;;;;;;;;;;;;;;13.57;56.88;100238.66;5091567;28;19999;-36
2023/02/28 01:30:08;;;;;;;;;;;;;;;13.59;57.19;100230.41;5091504;28;19912;-36
2023/02/28 01:32:35;;;;;;;;;;;;;;;13.73;57.16;100225.81;5090936;28;20003;-36
2023/02/28 01:35:00;;;;;;;;;;;;;;;13.85;56.10;100227.63;5091611;28;20409;-37
2023/02/28 01:37:25;;;;;;;;;;;;;;;13.91;56.03;100236.66;5091597;28;20002;-37
2023/02/28 01:39:51;;;;;;;;;;;;;;;13.87;56.07;100243.47;5091339;28;19912;-37
2023/02/28 01:42:16;;;;;;;;;;;;;;;13.72;56.43;100246.41;5091113;28;19916;-37
2023/02/28 01:44:53;;;;;;;;;;;;;;;13.71;56.53;100260.00;5091247;28;20372;-37
2023/02/28 01:47:19;;;;;;;;;;;;;;;13.30;57.60;100262.78;5091137;28;19912;-37
2023/02/28 01:49:44;;;;;;;;;;;;;;;13.30;57.74;100267.31;5091027;28;20360;-37
2023/02/28 01:52:17;;;;;;;;;;;;;;;13.39;57.24;100271.41;5094790;28;19916;-37
2023/02/28 01:54:45;;;;;;;;;;;;;;;13.52;57.02;100267.03;5095491;28;20004;-37
2023/02/28 01:57:14;;;;;;;;;;;;;;;13.37;57.48;100264.63;5094820;28;19919;-36
2023/02/28 02:00:00;;;;;;;;;;;;;;;13.54;56.80;100273.84;5095431;28;19916;-37
2023/02/28 02:02:26;;;;;;;;;;;;;;;13.42;57.05;100283.53;5094374;28;19916;-37
2023/02/28 02:04:54;;;;;;;;;;;;;;;12.91;58.87;100287.66;5095239;28;19927;-37
2023/02/28 02:07:20;;;;;;;;;;;;;;;12.82;59.10;100289.72;5095064;28;20015;-37
2023/02/28 02:09:45;;;;;;;;;;;;;;;12.79;59.46;100292.78;5094922;28;19969;-37
2023/02/28 02:12:19;;;;;;;;;;;;;;;12.81;58.70;100289.91;5095148;28;20228;-37
2023/02/28 02:15:04;;;;;;;;;;;;;;;12.49;58.54;100287.00;5095079;28;19912;-37
2023/02/28 02:17:38;;;;;;;;;;;;;;;12.60;57.73;100266.88;5094623;28;19913;-37
2023/02/28 02:20:39;;;;;;;;;;;;;;;12.45;58.02;100301.78;5095017;28;19944;-37
2023/02/28 02:23:10;;;;;;;;;;;;;;;12.60;58.70;100297.06;5052207;28;19925;-37
2023/02/28 02:25:38;;;;;;;;;;;;;;;12.20;61.21;100293.50;5087538;28;19912;-37
2023/02/28 02:28:18;;;;;;;;;;;;;;;12.42;60.08;100295.00;5094767;28;19912;-37
2023/02/28 02:30:49;;;;;;;;;;;;;;;12.33;60.53;100305.03;5094877;28;19912;-37
2023/02/28 02:33:26;;;;;;;;;;;;;;;12.44;60.34;100303.63;5094410;28;19912;-37
2023/02/28 02:35:51;;;;;;;;;;;;;;;12.46;59.91;100306.09;5094599;28;19919;-37
2023/02/28 02:38:31;;;;;;;;;;;;;;;12.46;60.37;100314.91;5094900;28;20010;-37
2023/02/28 02:41:03;;;;;;;;;;;;;;;12.10;61.80;100313.38;5095057;28;19916;-38
2023/02/28 02:43:31;;;;;;;;;;;;;;;11.86;63.41;100316.50;5093287;28;19995;-38
2023/02/28 02:45:59;;;;;;;;;;;;;;;11.79;64.91;100315.69;5094700;28;19912;-38
2023/02/28 02:48:26;;;;;;;;;;;;;;;11.99;64.24;100319.28;5094316;28;20414;-38
2023/02/28 02:50:54;;;;;;;;;;;;;;;12.11;63.92;100317.69;5094401;28;19912;-37
2023/02/28 02:53:24;;;;;;;;;;;;;;;12.10;63.57;100318.69;5094032;28;20311;-38
2023/02/28 02:55:54;;;;;;;;;;;;;;;12.10;63.88;100323.22;5094153;28;20002;-38
2023/02/28 02:58:22;;;;;;;;;;;;;;;12.21;63.98;100324.50;5093464;28;19999;-37
2023/02/28 03:00:50;;;;;;;;;;;;;;;12.00;64.67;100334.25;5094209;28;19916;-37
2023/02/28 03:03:17;;;;;;;;;;;;;;;12.02;64.60;100345.56;5092387;28;19968;-37
2023/02/28 03:05:47;;;;;;;;;;;;;;;11.97;65.77;100358.66;5094046;28;19962;-37
2023/02/28 03:08:12;;;;;;;;;;;;;;;11.48;68.28;100351.56;5094084;28;19912;-37
2023/02/28 03:10:42;;;;;;;;;;;;;;;11.39;68.10;100353.56;5093916;28;19912;-37
2023/02/28 03:13:10;;;;;;;;;;;;;;;11.48;69.05;100354.22;5093729;28;20303;-37
2023/02/28 03:15:56;;;;;;;;;;;;;;;11.71;67.48;100357.47;5093213;28;19919;-37
2023/02/28 03:18:41;;;;;;;;;;;;;;;11.87;67.67;100367.00;5072225;28;19916;-38
2023/02/28 03:21:28;;;;;;;;;;;;;;;11.93;67.00;100368.91;5071984;28;19927;-38
2023/02/28 03:23:59;;;;;;;;;;;;;;;11.55;69.50;100371.09;5093346;28;19920;-38
2023/02/28 03:26:26;;;;;;;;;;;;;;;11.28;69.75;100373.56;5093473;28;19916;-37
2023/02/28 03:28:51;;;;;;;;;;;;;;;11.10;71.42;100381.19;5093425;28;20313;-38
2023/02/28 03:31:29;;;;;;;;;;;;;;;11.05;71.67;100375.63;5093584;28;20014;-38
2023/02/28 03:33:59;;;;;;;;;;;;;;;10.52;73.91;100375.91;5093509;28;19914;-37
2023/02/28 03:36:27;;;;;;;;;;;;;;;10.92;73.10;100373.66;5093648;28;20002;-38
2023/02/28 03:39:02;;;;;;;;;;;;;;;10.72;74.85;100376.13;5093336;28;20368;-38
2023/02/28 03:41:38;;;;;;;;;;;;;;;10.84;74.70;100368.47;5093124;28;19912;-37
2023/02/28 03:44:15;;;;;;;;;;;;;;;10.90;73.99;100370.34;5093287;28;19923;-37
2023/02/28 03:46:42;;;;;;;;;;;;;;;10.36;76.39;100380.44;5093490;28;20464;-37
2023/02/28 03:49:07;;;;;;;;;;;;;;;10.66;76.21;100375.03;5093085;28;19916;-36
2023/02/28 03:51:33;;;;;;;;;;;;;;;10.65;76.52;100380.56;5093111;28;19919;-37
2023/02/28 03:54:07;;;;;;;;;;;;;;;10.59;77.43;100381.31;5093229;28;19918;-37
2023/02/28 03:56:35;;;;;;;;;;;;;;;10.50;76.85;100389.38;5093076;28;19977;-36
2023/02/28 03:59:10;;;;;;;;;;;;;;;10.65;77.07;100393.88;5092682;28;19961;-36
2023/02/28 04:01:41;;;;;;;;;;;;;;;10.48;77.80;100394.06;5093044;28;20383;-36
2023/02/28 04:04:06;;;;;;;;;;;;;;;10.74;76.56;100403.38;5092815;28;20019;-37
2023/02/28 04:06:33;;;;;;;;;;;;;;;10.92;75.64;100403.75;5092617;28;20014;-37
2023/02/28 04:08:59;;;;;;;;;;;;;;;11.54;73.06;100412.13;5092892;28;19919;-37
2023/02/28 04:11:36;;;;;;;;;;;;;;;11.10;74.68;100414.00;5092655;28;20371;-37
2023/02/28 04:14:02;;;;;;;;;;;;;;;11.33;74.37;100416.44;5092536;28;19912;-37
2023/02/28 04:16:28;;;;;;;;;;;;;;;11.26;73.49;100420.88;5092645;28;19964;-37
2023/02/28 04:19:03;;;;;;;;;;;;;;;11.53;72.10;100429.09;5092588;28;19912;-36
2023/02/28 04:21:32;;;;;;;;;;;;;;;11.36;72.95;100436.53;5091903;28;19959;-37
2023/02/28 04:24:00;;;;;;;;;;;;;;;11.25;73.14;100437.06;5092367;28;19943;-37
2023/02/28 04:26:32;;;;;;;;;;;;;;;11.32;72.58;100433.44;5092874;28;19918;-37
2023/02/28 04:28:58;;;;;;;;;;;;;;;11.60;71.68;100431.84;5092265;28;19920;-37
2023/02/28 04:31:23;;;;;;;;;;;;;;;10.89;74.03;100428.13;5092491;28;20351;-37
2023/02/28 04:33:49;;;;;;;;;;;;;;;10.56;74.48;100428.56;5091972;28;19912;-37
2023/02/28 04:36:17;;;;;;;;;;;;;;;11.07;73.24;100430.34;5092166;28;19912;-37
2023/02/28 04:38:43;;;;;;;;;;;;;;;11.13;74.63;100426.91;5092287;28;19912;-37
2023/02/28 04:41:08;;;;;;;;;;;;;;;11.25;72.50;100419.25;5092057;28;19944;-37
2023/02/28 04:43:34;;;;;;;;;;;;;;;11.53;71.44;100427.25;5092259;28;19952;-37
2023/02/28 04:46:00;;;;;;;;;;;;;;;11.39;71.69;100425.50;5092139;28;19919;-36
2023/02/28 04:48:30;;;;;;;;;;;;;;;11.30;71.11;100434.66;5112097;28;20359;-37
2023/02/28 04:50:59;;;;;;;;;;;;;;;11.08;72.60;100436.47;5112518;28;19994;-36
2023/02/28 04:53:24;;;;;;;;;;;;;;;10.90;72.56;100426.28;5112413;28;19915;-36
2023/02/28 04:55:50;;;;;;;;;;;;;;;11.14;72.25;100419.75;5099857;28;19912;-37
2023/02/28 04:58:15;;;;;;;;;;;;;;;10.79;73.01;100430.25;5091489;28;20264;-37
2023/02/28 05:00:41;;;;;;;;;;;;;;;10.54;73.63;100433.25;5092206;28;20026;-38
2023/02/28 05:03:06;;;;;;;;;;;;;;;10.28;76.05;100439.03;5110289;28;19943;-36
2023/02/28 05:05:31;;;;;;;;;;;;;;;10.20;75.33;100448.94;5099649;28;20269;-37
2023/02/28 05:07:57;;;;;;;;;;;;;;;10.64;73.67;100458.75;5091324;28;19931;-37
2023/02/28 05:10:22;;;;;;;;;;;;;;;10.34;74.07;100458.78;5091361;28;19919;-37
2023/02/28 05:12:47;;;;;;;;;;;;;;;10.39;74.59;100461.69;5091448;28;20432;-37
2023/02/28 05:15:14;;;;;;;;;;;;;;;10.32;74.99;100463.47;5091321;28;20028;-37
2023/02/28 05:17:39;;;;;;;;;;;;;;;10.47;73.89;100471.44;5091291;28;20225;-37
2023/02/28 05:20:05;;;;;;;;;;;;;;;10.33;73.12;100470.44;5091015;28;19961;-36
2023/02/28 05:22:31;;;;;;;;;;;;;;;10.56;73.86;100465.81;5090924;28;19931;-36
2023/02/28 05:24:56;;;;;;;;;;;;;;;10.39;73.67;100474.19;5090388;28;19919;-37
2023/02/28 05:27:21;;;;;;;;;;;;;;;9.90;75.51;100483.47;5091624;28;19932;-37
2023/02/28 05:29:46;;;;;;;;;;;;;;;10.09;76.09;100469.69;5091075;28;20372;-37
2023/02/28 05:32:12;;;;;;;;;;;;;;;10.40;74.25;100483.84;5090948;28;19912;-37
2023/02/28 05:34:38;;;;;;;;;;;;;;;10.28;75.09;100486.94;5090907;28;19920;-37
2023/02/28 05:37:04;;;;;;;;;;;;;;;10.18;75.00;100487.19;5090130;28;19916;-37
2023/02/28 05:39:29;;;;;;;;;;;;;;;10.06;74.41;100485.97;5089635;28;20331;-37
2023/02/28 05:41:55;;;;;;;;;;;;;;;10.22;74.54;100498.28;5090957;28;19912;-38
2023/02/28 05:44:20;;;;;;;;;;;;;;;10.78;72.98;100489.03;5090736;28;19912;-38
2023/02/28 05:46:45;;;;;;;;;;;;;;;10.43;74.04;100497.56;5090725;28;20320;-38
2023/02/28 05:49:11;;;;;;;;;;;;;;;10.01;73.86;100477.72;5090625;28;19916;-37
2023/02/28 05:51:39;;;;;;;;;;;;;;;10.28;75.00;100504.69;5089523;28;19920;-37
2023/02/28 05:54:05;;;;;;;;;;;;;;;10.69;73.12;100501.59;5090485;28;19919;-38
2023/02/28 05:56:30;;;;;;;;;;;;;;;10.10;75.38;100508.53;5090120;28;19913;-37
2023/02/28 05:58:55;;;;;;;;;;;;;;;10.13;75.63;100515.34;5090415;28;19947;-37
2023/02/28 06:01:23;;;;;;;;;;;;;;;10.03;75.46;100510.25;5090818;28;19916;-38
2023/02/28 06:03:48;;;;;;;;;;;;;;;9.89;76.44;100516.41;5090233;28;20383;-36
2023/02/28 06:06:13;;;;;;;;;;;;;;;9.83;76.64;100512.63;5090343;28;19939;-37
2023/02/28 06:08:39;;;;;;;;;;;;;;;10.69;83.87;100522.91;5091518;28;19984;-38
2023/02/28 06:11:26;;;;;;;;;;;;;;;11.13;72.83;100514.81;5089107;28;20375;-36
2023/02/28 06:14:14;;;;;;;;;;;;;;;10.74;72.94;100521.34;5088737;28;19969;-36
2023/02/28 06:16:39;;;;;;;;;;;;;;;10.77;72.10;100525.44;5090161;28;19916;-37
2023/02/28 06:19:04;;;;;;;;;;;;;;;10.70;72.91;100524.53;5090374;28;19912;-37
2023/02/28 06:21:30;;;;;;;;;;;;;;;10.34;74.16;100535.94;5089932;28;20440;-37
2023/02/28 06:23:56;;;;;;;;;;;;;;;9.97;76.24;100524.28;5090730;28;19977;-37
2023/02/28 06:26:21;;;;;;;;;;;;;;;10.13;75.21;100526.81;5090059;28;19916;-37
2023/02/28 06:28:47;;;;;;;;;;;;;;;10.22;74.47;100526.72;5090850;28;19916;-37
2023/02/28 06:31:13;;;;;;;;;;;;;;;10.09;75.48;100522.88;5090375;28;19912;-38
2023/02/28 06:33:39;;;;;;;;;;;;;;;9.77;76.27;100531.97;5090519;28;19998;-39
2023/02/28 06:36:05;;;;;;;;;;;;;;;10.30;74.99;100530.16;5091003;28;20011;-37
2023/02/28 06:38:30;;;;;;;;;;;;;;;9.80;76.33;100528.91;5094589;28;19919;-37
2023/02/28 06:40:56;;;;;;;;;;;;;;;9.63;77.37;100541.50;5094396;28;20353;-37
2023/02/28 06:43:22;;;;;;;;;;;;;;;9.65;77.83;100536.03;5094361;28;19985;-38
2023/02/28 06:45:48;;;;;;;;;;;;;;;9.69;77.62;100532.84;5094350;28;20373;-38
2023/02/28 06:48:13;;;;;;;;;;;;;;;9.78;77.02;100523.78;5093778;28;19958;-36
2023/02/28 06:50:38;;;;;;;;;;;;;;;9.75;77.30;100531.31;5093826;28;19932;-36
2023/02/28 06:53:04;;;;;;;;;;;;;;;9.43;79.12;100527.06;5093554;28;19966;-37
2023/02/28 06:55:29;;;;;;;;;;;;;;;9.56;79.13;100532.63;5094298;28;19926;-38
2023/02/28 06:57:57;;;;;;;;;;;;;;;9.78;77.79;100553.03;5093690;28;19912;-38
2023/02/28 07:00:23;;;;;;;;;;;;;;;9.87;77.41;100548.47;5093353;28;19980;-36
2023/02/28 07:02:48;;;;;;;;;;;;;;;10.42;75.01;100545.69;5092674;28;20391;-34
2023/02/28 07:05:13;;;;;;;;;;;;;;;10.82;73.35;100539.03;5092216;28;20007;-37
2023/02/28 07:07:43;;;;;;;;;;;;;;;10.27;74.17;100557.09;5092747;28;19934;-37
2023/02/28 07:10:09;;;;;;;;;;;;;;;10.22;75.19;100554.13;5092730;28;20317;-36
2023/02/28 07:12:35;;;;;;;;;;;;;;;10.28;74.71;100549.91;5092683;28;19926;-37
2023/02/28 07:15:01;;;;;;;;;;;;;;;10.30;73.85;100542.59;5091983;28;19923;-37
2023/02/28 07:17:26;;;;;;;;;;;;;;;10.07;75.43;100553.28;5092297;28;19912;-37
2023/02/28 07:19:51;;;;;;;;;;;;;;;9.25;77.71;100530.81;5092720;28;19912;-37
2023/02/28 07:22:17;;;;;;;;;;;;;;;9.68;77.99;100570.22;5092541;28;20087;-37
2023/02/28 07:24:42;;;;;;;;;;;;;;;9.42;78.65;100547.47;5092752;28;20007;-38
2023/02/28 07:27:07;;;;;;;;;;;;;;;9.47;79.46;100558.41;5091474;28;19923;-36
2023/02/28 07:29:32;;;;;;;;;;;;;;;9.40;78.80;100570.75;5092897;28;19933;-37
2023/02/28 07:31:58;;;;;;;;;;;;;;;9.41;79.00;100561.78;5093030;28;19916;-37
2023/02/28 07:34:23;;;;;;;;;;;;;;;9.56;78.55;100562.66;5092947;28;20497;-36
2023/02/28 07:36:53;;;;;;;;;;;;;;;9.40;78.95;100584.03;5093078;28;19934;-37
2023/02/28 07:39:18;;;;;;;;;;;;;;;9.26;79.36;100580.28;5092811;28;19923;-39
2023/02/28 07:41:43;;;;;;;;;;;;;;;9.22;79.47;100586.94;5092882;28;19912;-37
2023/02/28 07:44:12;;;;;;;;;;;;;;;8.91;81.49;100581.59;5092599;28;20011;-35
2023/02/28 07:46:37;;;;;;;;;;;;;;;9.06;81.20;100581.72;5092868;28;19969;-37
2023/02/28 07:49:03;;;;;;;;;;;;;;;8.92;81.51;100573.47;5092190;28;19916;-37
2023/02/28 07:51:29;;;;;;;;;;;;;;;9.06;80.93;100563.94;5092356;28;19918;-37
2023/02/28 07:53:54;;;;;;;;;;;;;;;9.09;81.03;100568.91;5092908;28;20032;-37
2023/02/28 07:56:20;;;;;;;;;;;;;;;8.98;81.31;100572.78;5092653;28;19912;-36
2023/02/28 07:58:45;;;;;;;;;;;;;;;9.26;81.46;100569.66;5092444;28;19912;-36
2023/02/28 08:01:11;;;;;;;;;;;;;;;9.43;79.66;100569.56;5092110;28;19994;-37
2023/02/28 08:03:37;;;;;;;;;;;;;;;9.54;78.87;100571.84;5092423;28;19923;-36
2023/02/28 08:06:03;;;;;;;;;;;;;;;9.30;79.84;100586.91;5092817;28;20459;-37
2023/02/28 08:08:31;;;;;;;;;;;;;;;9.16;81.49;100574.38;5091984;28;19912;-37
2023/02/28 08:10:58;;;;;;;;;;;;;;;9.55;79.94;100573.47;5092347;28;19927;-36
2023/02/28 08:13:23;;;;;;;;;;;;;;;10.26;76.45;100575.88;5092577;28;20004;-36
2023/02/28 08:15:49;;;;;;;;;;;;;;;10.23;76.74;100578.94;5092186;28;19958;-38
2023/02/28 08:18:14;;;;;;;;;;;;;;;10.74;73.40;100579.09;5092250;28;19912;-37
2023/02/28 08:20:39;;;;;;;;;;;;;;;10.87;73.05;100578.41;5091700;28;19923;-37
2023/02/28 08:23:05;;;;;;;;;;;;;;;10.24;76.02;100583.22;5091907;28;19920;-36
2023/02/28 08:25:30;;;;;;;;;;;;;;;10.18;76.32;100574.97;5092214;28;19930;-37
2023/02/28 08:27:55;;;;;;;;;;;;;;;10.05;76.10;100573.91;5092166;28;19919;-36
2023/02/28 08:30:20;;;;;;;;;;;;;;;10.05;76.75;100579.22;5092208;28;20342;-36
2023/02/28 08:32:46;;;;;;;;;;;;;;;10.23;76.18;100571.75;5092060;28;19912;-37
2023/02/28 08:35:11;;;;;;;;;;;;;;;10.17;75.57;100568.00;5091650;28;19912;-37
2023/02/28 08:37:37;;;;;;;;;;;;;;;9.81;77.35;100564.34;5091818;28;19931;-37
2023/02/28 08:40:03;;;;;;;;;;;;;;;10.19;76.15;100578.44;5091451;28;19912;-37
2023/02/28 08:42:29;;;;;;;;;;;;;;;10.57;75.01;100575.78;5091723;28;19977;-36
2023/02/28 08:44:54;;;;;;;;;;;;;;;10.73;73.29;100582.75;5091504;28;20403;-37
2023/02/28 08:47:19;;;;;;;;;;;;;;;10.15;75.38;100579.81;5091251;28;19970;-38
2023/02/28 08:49:45;;;;;;;;;;;;;;;10.06;76.72;100580.91;5091622;28;20006;-38
2023/02/28 08:52:10;;;;;;;;;;;;;;;10.38;74.54;100579.81;5091465;28;19976;-38
2023/02/28 08:54:35;;;;;;;;;;;;;;;10.41;75.29;100590.06;5091537;28;20319;-37
2023/02/28 08:57:02;;;;;;;;;;;;;;;10.30;74.81;100591.34;5091027;28;19912;-36
2023/02/28 08:59:27;;;;;;;;;;;;;;;10.51;75.51;100585.31;5090610;28;20328;-36
2023/02/28 09:01:52;;;;;;;;;;;;;;;10.14;75.58;100594.13;5090444;28;19919;-36
2023/02/28 09:04:17;;;;;;;;;;;;;;;10.07;75.50;100591.38;5090840;28;19920;-37
2023/02/28 09:06:44;;;;;;;;;;;;;;;10.31;76.17;100577.03;5091137;28;19935;-36
2023/02/28 09:09:09;;;;;;;;;;;;;;;10.43;74.37;100588.03;5091051;28;20376;-36
2023/02/28 09:11:35;;;;;;;;;;;;;;;11.05;71.96;100586.03;5090956;28;19912;-37
2023/02/28 09:14:02;;;;;;;;;;;;;;;10.87;72.97;100594.41;5090864;28;20360;-37
2023/02/28 09:16:28;;;;;;;;;;;;;;;10.86;73.22;100598.09;5091045;28;19916;-37
2023/02/28 09:18:53;;;;;;;;;;;;;;;10.57;74.01;100594.41;5091218;28;20450;-37
2023/02/28 09:21:18;;;;;;;;;;;;;;;10.33;74.50;100584.84;5090672;28;19920;-38
2023/02/28 09:23:45;;;;;;;;;;;;;;;10.64;73.70;100586.50;5090676;28;19921;-36
2023/02/28 09:26:14;;;;;;;;;;;;;;;10.40;73.21;100593.75;5090530;28;19912;-36
2023/02/28 09:28:40;;;;;;;;;;;;;;;9.53;77.99;100575.47;5090510;28;19923;-37
2023/02/28 09:31:05;;;;;;;;;;;;;;;9.94;77.00;100575.19;5090551;28;19912;-37
2023/02/28 09:33:30;;;;;;;;;;;;;;;10.88;72.66;100572.09;5090697;28;20296;-37
2023/02/28 09:36:00;;;;;;;;;;;;;;;10.96;72.75;100566.66;5090519;28;20010;-37
2023/02/28 09:38:25;;;;;;;;;;;;;;;10.74;73.81;100573.75;5090319;28;19950;-37
2023/02/28 09:40:52;;;;;;;;;;;;;;;10.11;75.09;100557.22;5090511;28;19970;-37
2023/02/28 09:43:20;;;;;;;;;;;;;;;9.97;76.92;100575.63;5090078;28;19916;-37
2023/02/28 09:45:52;;;;;;;;;;;;;;;10.20;77.04;100563.31;5090148;28;20310;-44
2023/02/28 09:48:20;;;;;;;;;;;;;;;10.43;74.55;100572.06;5089731;28;20395;-43
2023/02/28 09:50:55;;;;;;;;;;;;;;;10.44;75.21;100578.25;5089885;28;19919;-42
2023/02/28 09:53:34;;;;;;;;;;;;;;;10.53;74.18;100567.34;5088073;28;19955;-43
2023/02/28 09:56:07;;;;;;;;;;;;;;;10.84;72.51;100570.81;5087778;28;20387;-42
2023/02/28 09:58:38;;;;;;;;;;;;;;;10.03;76.61;100579.41;5090792;28;19916;-43
2023/02/28 10:01:10;;;;;;;;;;;;;;;10.39;75.63;100554.81;5088698;28;19912;-45
2023/02/28 10:03:58;;;;;;;;;;;;;;;10.19;76.79;100549.19;5090252;28;19965;-43
2023/02/28 10:06:30;;;;;;;;;;;;;;;9.77;78.41;100545.25;5088316;28;19931;-44
2023/02/28 10:09:01;;;;;;;;;;;;;;;9.47;79.59;100534.50;5090383;28;19980;-43
2023/02/28 10:11:27;;;;;;;;;;;;;;;9.77;79.32;100539.94;5091375;28;19916;-43
2023/02/28 10:14:02;;;;;;;;;;;;;;;9.76;78.84;100535.59;5094564;28;19912;-44
2023/02/28 10:16:36;;;;;;;;;;;;;;;10.00;77.39;100549.72;5094211;28;19912;-43
2023/02/28 10:19:14;;;;;;;;;;;;;;;10.02;77.23;100540.53;5093735;28;19916;-42
2023/02/28 10:21:46;;;;;;;;;;;;;;;10.34;75.84;100536.75;5092478;28;20372;-43
2023/02/28 10:24:11;;;;;;;;;;;;;;;10.71;74.84;100532.34;5092547;28;20014;-43
2023/02/28 10:26:37;;;;;;;;;;;;;;;10.65;74.65;100526.94;5093116;28;20016;-43
2023/02/28 10:29:02;;;;;;;;;;;;;;;9.96;76.62;100531.44;5092921;28;19912;-44
2023/02/28 10:31:28;;;;;;;;;;;;;;;9.73;78.18;100528.81;5093494;28;19938;-43
2023/02/28 10:33:53;;;;;;;;;;;;;;;10.26;76.50;100528.00;5093393;28;20004;-43
2023/02/28 10:36:19;;;;;;;;;;;;;;;10.66;74.94;100525.91;5093137;28;19951;-43
2023/02/28 10:38:45;;;;;;;;;;;;;;;10.47;75.04;100525.50;5093560;28;19919;-43
2023/02/28 10:41:12;;;;;;;;;;;;;;;10.36;75.17;100516.13;5093785;28;20213;-43
2023/02/28 10:43:38;;;;;;;;;;;;;;;10.62;74.77;100530.78;5093823;28;20011;-43
2023/02/28 10:46:09;;;;;;;;;;;;;;;10.26;76.28;100528.00;5093947;28;20279;-44
2023/02/28 10:48:37;;;;;;;;;;;;;;;10.37;75.28;100531.06;5093997;28;19912;-43
2023/02/28 10:51:04;;;;;;;;;;;;;;;10.32;75.31;100530.00;5093912;28;19912;-43
2023/02/28 10:53:49;;;;;;;;;;;;;;;9.90;77.31;100518.03;5093611;28;19916;-43
2023/02/28 10:56:16;;;;;;;;;;;;;;;9.90;77.27;100521.53;5093748;28;19962;-42
2023/02/28 10:58:44;;;;;;;;;;;;;;;10.26;75.88;100510.22;5093583;28;19919;-43
2023/02/28 11:01:20;;;;;;;;;;;;;;;9.90;77.27;100502.09;5093538;28;20253;-38
2023/02/28 11:03:46;;;;;;;;;;;;;;;10.10;76.72;100502.41;5093068;28;19916;-38
2023/02/28 11:06:22;;;;;;;;;;;;;;;9.94;76.90;100503.41;5093676;28;19969;-41
2023/02/28 11:08:50;;;;;;;;;;;;;;;9.70;78.76;100502.59;5093295;28;20003;-37
2023/02/28 11:11:16;;;;;;;;;;;;;;;10.29;76.82;100511.69;5093450;28;19912;-36
2023/02/28 11:13:43;;;;;;;;;;;;;;;10.10;76.29;100505.88;5093126;28;20061;-37
2023/02/28 11:16:10;;;;;;;;;;;;;;;9.51;79.38;100516.38;5093344;28;19928;-36
2023/02/28 11:18:43;;;;;;;;;;;;;;;9.29;80.76;100507.38;5093304;28;19912;-38
2023/02/28 11:21:09;;;;;;;;;;;;;;;9.41;80.99;100492.72;5092809;28;19931;-38
2023/02/28 11:23:36;;;;;;;;;;;;;;;9.95;79.28;100497.06;5092184;28;19981;-36
2023/02/28 11:26:04;;;;;;;;;;;;;;;9.46;80.86;100503.63;5093097;28;20329;-37
2023/02/28 11:28:32;;;;;;;;;;;;;;;9.71;80.50;100492.78;5093051;28;19912;-36
2023/02/28 11:31:03;;;;;;;;;;;;;;;9.96;80.35;100488.09;5092763;28;20460;-37
2023/02/28 11:33:30;;;;;;;;;;;;;;;9.56;81.37;100496.25;5092915;28;19916;-36
2023/02/28 11:35:58;;;;;;;;;;;;;;;9.99;81.28;100495.69;5092817;28;19912;-36
2023/02/28 11:38:25;;;;;;;;;;;;;;;10.18;80.54;100505.81;5092711;28;19927;-36
2023/02/28 11:40:51;;;;;;;;;;;;;;;10.06;80.06;100499.28;5092938;28;19934;-36
2023/02/28 11:43:23;;;;;;;;;;;;;;;9.85;81.74;100494.66;5092590;28;20314;-37
2023/02/28 11:45:52;;;;;;;;;;;;;;;9.70;82.38;100494.63;5092414;28;20034;-37
2023/02/28 11:48:22;;;;;;;;;;;;;;;9.72;83.81;100489.94;5092417;28;19912;-36
2023/02/28 11:51:00;;;;;;;;;;;;;;;9.95;81.66;100497.06;5091948;28;19951;-36
2023/02/28 11:53:26;;;;;;;;;;;;;;;9.93;82.56;100483.94;5092276;28;20240;-37
2023/02/28 11:55:51;;;;;;;;;;;;;;;10.08;81.59;100491.94;5092645;28;19969;-35
2023/02/28 11:58:39;;;;;;;;;;;;;;;10.40;80.52;100492.63;5092297;28;19916;-37
2023/02/28 12:01:10;;;;;;;;;;;;;;;10.27;80.29;100485.25;5092126;28;19996;-38
2023/02/28 12:03:39;;;;;;;;;;;;;;;10.23;80.22;100457.38;5092079;28;19992;-35
2023/02/28 12:06:04;;;;;;;;;;;;;;;10.83;78.53;100482.09;5092242;28;19919;-37
2023/02/28 12:08:31;;;;;;;;;;;;;;;11.02;77.16;100478.00;5092117;28;19995;-38
2023/02/28 12:10:56;;;;;;;;;;;;;;;10.40;79.19;100471.34;5091907;28;19916;-37
2023/02/28 12:13:27;;;;;;;;;;;;;;;10.26;80.23;100464.16;5091997;28;20382;-38
2023/02/28 12:16:19;;;;;;;;;;;;;;;10.40;80.19;100471.34;5091843;28;19912;-37
2023/02/28 12:18:56;;;;;;;;;;;;;;;10.58;79.42;100473.63;5092051;28;20026;-37
2023/02/28 12:21:22;;;;;;;;;;;;;;;10.48;78.99;100476.56;5091797;28;20015;-37
2023/02/28 12:24:07;;;;;;;;;;;;;;;10.93;77.86;100474.66;5092118;28;20367;-36
2023/02/28 12:26:43;;;;;;;;;;;;;;;10.67;78.00;100477.84;5084372;28;19912;-36
2023/02/28 12:29:27;;;;;;;;;;;;;;;10.62;78.70;100474.06;5091485;28;20295;-37
2023/02/28 12:32:10;;;;;;;;;;;;;;;11.07;76.69;100472.97;5091603;28;19913;-37
2023/02/28 12:34:39;;;;;;;;;;;;;;;10.82;77.75;100469.81;5091408;28;20020;-37
2023/02/28 12:37:08;;;;;;;;;;;;;;;10.88;77.69;100461.06;5091512;28;20408;-37
2023/02/28 12:39:39;;;;;;;;;;;;;;;10.73;78.38;100470.94;5091569;28;19927;-37
2023/02/28 12:42:14;;;;;;;;;;;;;;;10.06;80.64;100463.88;5091777;28;20379;-36